createdAt,value
2022-12-26T00:01:56.508Z,33.88
2022-12-26T00:04:52.462Z,33.91
2022-12-26T00:07:12.189Z,33.87
2022-12-26T00:09:39.958Z,33.63
2022-12-26T00:12:07.719Z,33.51
2022-12-26T00:14:35.549Z,33.57
2022-12-26T00:17:03.337Z,33.61
2022-12-26T00:19:31.246Z,33.84
2022-12-26T00:21:59.205Z,33.62
2022-12-26T00:24:27.056Z,33.58
2022-12-26T00:26:54.906Z,33.83
2022-12-26T00:29:23.573Z,33.97
2022-12-26T00:31:51.355Z,33.74
2022-12-26T00:34:19.229Z,33.71
2022-12-26T00:36:46.988Z,33.85
2022-12-26T00:39:15.032Z,33.71
2022-12-26T00:41:42.878Z,34.18
2022-12-26T00:44:10.719Z,33.93
2022-12-26T00:46:38.553Z,34.06
2022-12-26T00:49:06.578Z,34.15
2022-12-26T00:51:34.355Z,34.03
2022-12-26T00:54:02.243Z,34.03
2022-12-26T00:56:31.388Z,33.77
2022-12-26T00:58:59.197Z,34.10
2022-12-26T01:01:30.966Z,34.17
2022-12-26T01:03:59.125Z,34.10
2022-12-26T01:06:27.072Z,34.27
2022-12-26T01:08:54.896Z,34.22
2022-12-26T01:11:36.647Z,34.17
2022-12-26T01:14:04.487Z,34.13
2022-12-26T01:16:32.430Z,34.42
2022-12-26T01:19:00.182Z,34.25
2022-12-26T01:21:28.087Z,34.03
2022-12-26T01:23:55.833Z,33.99
2022-12-26T01:26:23.641Z,34.08
2022-12-26T01:28:51.459Z,34.29
2022-12-26T01:31:19.281Z,34.09
2022-12-26T01:33:47.228Z,34.31
2022-12-26T01:36:15.071Z,34.12
2022-12-26T01:38:42.881Z,34.32
2022-12-26T01:41:20.978Z,34.23
2022-12-26T01:43:49.002Z,34.43
2022-12-26T01:46:16.992Z,34.54
2022-12-26T01:48:44.971Z,34.60
2022-12-26T01:51:12.755Z,34.27
2022-12-26T01:53:40.654Z,34.05
2022-12-26T01:56:08.837Z,34.37
2022-12-26T01:58:36.593Z,34.52
2022-12-26T02:01:04.607Z,34.29
2022-12-26T02:03:50.285Z,34.21
2022-12-26T02:06:18.122Z,34.22
2022-12-26T02:08:45.917Z,34.20
2022-12-26T02:11:13.736Z,34.51
2022-12-26T02:13:41.502Z,34.24
2022-12-26T02:16:09.499Z,34.51
2022-12-26T02:18:37.334Z,34.44
2022-12-26T02:21:05.190Z,34.47
2022-12-26T02:23:33.054Z,34.47
2022-12-26T02:26:00.882Z,34.51
2022-12-26T02:28:28.671Z,34.59
2022-12-26T02:30:56.447Z,34.18
2022-12-26T02:33:24.234Z,34.36
2022-12-26T02:35:52.027Z,34.56
2022-12-26T02:38:19.929Z,34.21
2022-12-26T02:40:48.411Z,34.22
2022-12-26T02:43:16.215Z,34.25
2022-12-26T02:46:01.366Z,34.61
2022-12-26T02:48:29.187Z,34.48
2022-12-26T02:51:14.787Z,34.25
2022-12-26T02:54:00.169Z,34.75
2022-12-26T02:56:45.557Z,34.36
2022-12-26T02:59:54.269Z,34.24
2022-12-26T03:02:36.444Z,34.65
2022-12-26T03:05:22.113Z,34.56
2022-12-26T03:08:07.457Z,34.60
2022-12-26T03:10:52.526Z,34.59
2022-12-26T03:13:22.977Z,34.93
2022-12-26T03:16:08.241Z,34.40
2022-12-26T03:18:58.483Z,34.57
2022-12-26T03:21:24.018Z,34.42
2022-12-26T03:23:51.777Z,34.78
2022-12-26T03:26:37.173Z,34.35
2022-12-26T03:29:19.111Z,34.59
2022-12-26T03:31:47.300Z,34.54
2022-12-26T03:34:20.268Z,34.69
2022-12-26T03:36:48.037Z,34.44
2022-12-26T03:39:15.850Z,34.51
2022-12-26T03:42:01.306Z,34.59
2022-12-26T03:44:53.344Z,34.52
2022-12-26T03:47:38.999Z,34.67
2022-12-26T03:50:24.451Z,34.82
2022-12-26T03:53:09.943Z,34.64
2022-12-26T03:55:55.456Z,34.80
2022-12-26T03:58:40.865Z,34.62
2022-12-26T04:01:26.054Z,35.00
2022-12-26T04:04:25.952Z,34.93
2022-12-26T04:07:11.139Z,34.40
2022-12-26T04:09:56.401Z,34.71
2022-12-26T04:12:41.624Z,34.67
2022-12-26T04:15:41.782Z,34.61
2022-12-26T04:18:26.758Z,34.79
2022-12-26T04:20:54.640Z,34.60
2022-12-26T04:23:39.795Z,34.39
2022-12-26T04:26:24.939Z,34.49
2022-12-26T04:29:10.375Z,34.74
2022-12-26T04:31:56.265Z,34.31
2022-12-26T04:34:41.596Z,34.66
2022-12-26T04:37:26.810Z,34.57
2022-12-26T04:40:12.099Z,34.73
2022-12-26T04:42:57.606Z,34.77
2022-12-26T04:45:27.153Z,34.57
2022-12-26T04:48:12.425Z,34.41
2022-12-26T04:50:40.251Z,34.69
2022-12-26T04:53:08.021Z,34.52
2022-12-26T04:55:36.695Z,34.53
2022-12-26T04:58:04.471Z,34.35
2022-12-26T05:00:32.290Z,34.46
2022-12-26T05:03:19.589Z,34.61
2022-12-26T05:06:04.959Z,34.42
2022-12-26T05:08:50.214Z,34.49
2022-12-26T05:11:17.993Z,34.50
2022-12-26T05:13:45.765Z,34.49
2022-12-26T05:16:30.878Z,34.88
2022-12-26T05:19:16.127Z,34.88
2022-12-26T05:22:01.707Z,34.90
2022-12-26T05:24:47.126Z,34.98
2022-12-26T05:27:32.705Z,34.90
2022-12-26T05:30:00.726Z,34.64
2022-12-26T05:32:46.074Z,34.90
2022-12-26T05:35:13.846Z,34.68
2022-12-26T05:37:41.662Z,34.81
2022-12-26T05:40:09.792Z,34.79
2022-12-26T05:42:37.603Z,34.68
2022-12-26T05:45:05.333Z,35.02
2022-12-26T05:47:33.134Z,35.01
2022-12-26T05:50:01.067Z,34.76
2022-12-26T05:52:28.846Z,34.91
2022-12-26T05:54:56.701Z,34.79
2022-12-26T05:57:24.590Z,34.98
2022-12-26T05:59:52.356Z,34.94
2022-12-26T06:02:20.213Z,35.00
2022-12-26T06:04:48.125Z,34.93
2022-12-26T06:07:15.839Z,34.99
2022-12-26T06:09:43.543Z,35.00
2022-12-26T06:12:11.312Z,35.01
2022-12-26T06:14:39.237Z,35.44
2022-12-26T06:17:07.189Z,35.03
2022-12-26T06:19:34.961Z,34.96
2022-12-26T06:22:02.771Z,35.00
2022-12-26T06:24:30.494Z,35.29
2022-12-26T06:26:58.245Z,35.04
2022-12-26T06:29:26.014Z,34.91
2022-12-26T06:31:53.755Z,35.21
2022-12-26T06:34:21.534Z,35.26
2022-12-26T06:36:49.253Z,35.15
2022-12-26T06:39:16.947Z,35.30
2022-12-26T06:41:44.677Z,35.33
2022-12-26T06:44:17.862Z,35.83
2022-12-26T06:46:46.245Z,35.34
2022-12-26T06:49:13.985Z,35.29
2022-12-26T06:51:41.786Z,35.45
2022-12-26T06:54:09.500Z,35.18
2022-12-26T06:56:37.425Z,35.34
2022-12-26T06:59:05.195Z,35.61
2022-12-26T07:01:33.033Z,35.42
2022-12-26T07:04:01.193Z,35.61
2022-12-26T07:06:28.973Z,35.93
2022-12-26T07:08:56.735Z,35.80
2022-12-26T07:11:24.511Z,35.92
2022-12-26T07:13:52.215Z,35.75
2022-12-26T07:16:20.134Z,35.91
2022-12-26T07:18:47.875Z,35.99
2022-12-26T07:21:15.630Z,35.69
2022-12-26T07:23:43.523Z,35.98
2022-12-26T07:26:11.294Z,35.65
2022-12-26T07:28:39.117Z,35.53
2022-12-26T07:31:06.963Z,35.60
2022-12-26T07:33:34.751Z,35.66
2022-12-26T07:36:02.483Z,35.74
2022-12-26T07:38:30.190Z,35.47
2022-12-26T07:40:58.025Z,35.31
2022-12-26T07:43:26.005Z,35.40
2022-12-26T07:45:53.789Z,35.29
2022-12-26T07:48:21.534Z,35.38
2022-12-26T07:50:49.817Z,35.30
2022-12-26T07:53:17.632Z,35.45
2022-12-26T07:55:45.357Z,35.23
2022-12-26T07:58:13.069Z,35.48
2022-12-26T08:00:40.863Z,35.22
2022-12-26T08:03:09.524Z,35.36
2022-12-26T08:05:37.452Z,35.16
2022-12-26T08:08:05.377Z,35.46
2022-12-26T08:10:33.148Z,35.20
2022-12-26T08:13:00.901Z,35.28
2022-12-26T08:15:28.755Z,35.26
2022-12-26T08:17:56.463Z,35.07
2022-12-26T08:20:24.247Z,35.23
2022-12-26T08:22:51.966Z,35.29
2022-12-26T08:25:21.918Z,35.42
2022-12-26T08:27:49.999Z,35.19
2022-12-26T08:30:17.792Z,35.39
2022-12-26T08:32:46.440Z,35.40
2022-12-26T08:35:15.747Z,35.19
2022-12-26T08:37:43.496Z,35.47
2022-12-26T08:40:12.873Z,35.41
2022-12-26T08:42:56.103Z,35.23
2022-12-26T08:45:28.418Z,35.18
2022-12-26T08:47:56.196Z,35.40
2022-12-26T08:50:24.121Z,35.45
2022-12-26T08:52:51.852Z,35.43
2022-12-26T08:55:19.581Z,35.24
2022-12-26T08:57:47.497Z,35.40
2022-12-26T09:00:15.337Z,35.46
2022-12-26T09:02:43.213Z,35.31
2022-12-26T09:05:11.065Z,35.50
2022-12-26T09:07:39.299Z,35.21
2022-12-26T09:10:06.995Z,35.30
2022-12-26T09:12:34.698Z,35.63
2022-12-26T09:15:02.913Z,35.68
2022-12-26T09:17:30.805Z,35.80
2022-12-26T09:19:58.694Z,35.70
2022-12-26T09:22:43.762Z,35.74
2022-12-26T09:25:11.504Z,35.66
2022-12-26T09:27:39.436Z,35.58
2022-12-26T09:30:07.225Z,35.92
2022-12-26T09:32:35.054Z,35.62
2022-12-26T09:35:02.853Z,35.51
2022-12-26T09:37:30.578Z,35.73
2022-12-26T09:39:58.321Z,35.91
2022-12-26T09:42:26.182Z,35.80
2022-12-26T09:44:53.918Z,35.39
2022-12-26T09:47:21.634Z,35.70
2022-12-26T09:49:49.367Z,35.68
2022-12-26T09:52:17.101Z,35.33
2022-12-26T09:54:44.990Z,35.36
2022-12-26T09:57:15.090Z,35.32
2022-12-26T09:59:43.195Z,35.72
2022-12-26T10:02:11.030Z,35.34
2022-12-26T10:04:38.849Z,35.51
2022-12-26T10:07:06.687Z,35.55
2022-12-26T10:09:34.429Z,35.52
2022-12-26T10:12:02.102Z,35.43
2022-12-26T10:14:29.845Z,35.59
2022-12-26T10:16:57.646Z,35.44
2022-12-26T10:19:32.043Z,35.15
2022-12-26T10:22:00.787Z,35.57
2022-12-26T10:24:28.626Z,35.43
2022-12-26T10:26:56.384Z,35.43
2022-12-26T10:29:24.103Z,35.67
2022-12-26T10:31:51.890Z,35.69
2022-12-26T10:34:19.752Z,35.67
2022-12-26T10:36:47.607Z,35.88
2022-12-26T10:39:15.341Z,35.77
2022-12-26T10:41:43.101Z,35.76
2022-12-26T10:44:16.866Z,35.91
2022-12-26T10:46:44.696Z,35.78
2022-12-26T10:49:12.854Z,35.86
2022-12-26T10:51:40.667Z,36.06
2022-12-26T10:54:08.388Z,35.97
2022-12-26T10:56:36.244Z,35.90
2022-12-26T10:59:04.003Z,35.88
2022-12-26T11:01:32.518Z,35.88
2022-12-26T11:04:00.456Z,35.94
2022-12-26T11:06:31.034Z,35.77
2022-12-26T11:08:58.770Z,35.96
2022-12-26T11:11:26.547Z,35.93
2022-12-26T11:14:01.202Z,35.75
2022-12-26T11:16:29.393Z,35.40
2022-12-26T11:18:57.175Z,35.85
2022-12-26T11:21:25.651Z,35.27
2022-12-26T11:23:53.501Z,35.73
2022-12-26T11:26:21.231Z,35.57
2022-12-26T11:28:52.035Z,35.89
2022-12-26T11:31:19.763Z,35.44
2022-12-26T11:33:47.747Z,35.87
2022-12-26T11:36:17.677Z,35.70
2022-12-26T11:38:45.698Z,35.06
2022-12-26T11:41:30.844Z,35.50
2022-12-26T11:43:58.583Z,35.44
2022-12-26T11:46:26.374Z,35.42
2022-12-26T11:48:54.098Z,35.48
2022-12-26T11:51:21.968Z,35.33
2022-12-26T11:53:49.707Z,35.41
2022-12-26T11:56:17.541Z,35.26
2022-12-26T11:58:45.288Z,35.33
2022-12-26T12:01:12.995Z,35.25
2022-12-26T12:03:45.441Z,35.67
2022-12-26T12:06:16.597Z,35.47
2022-12-26T12:08:44.517Z,35.63
2022-12-26T12:11:12.435Z,35.61
2022-12-26T12:13:40.241Z,35.55
2022-12-26T12:16:08.090Z,35.48
2022-12-26T12:18:35.870Z,35.55
2022-12-26T12:21:03.676Z,35.34
2022-12-26T12:23:31.581Z,35.45
2022-12-26T12:25:59.370Z,35.33
2022-12-26T12:28:27.178Z,35.39
2022-12-26T12:30:55.107Z,35.37
2022-12-26T12:33:24.693Z,35.83
2022-12-26T12:35:53.526Z,35.56
2022-12-26T12:38:21.392Z,35.41
2022-12-26T12:40:49.194Z,35.64
2022-12-26T12:43:17.025Z,35.70
2022-12-26T12:45:44.832Z,35.68
2022-12-26T12:48:12.610Z,35.43
2022-12-26T12:50:40.366Z,35.39
2022-12-26T12:53:08.223Z,36.01
2022-12-26T12:55:36.023Z,35.77
2022-12-26T12:58:03.846Z,35.75
2022-12-26T13:00:32.929Z,35.87
2022-12-26T13:03:00.906Z,35.80
2022-12-26T13:05:29.182Z,35.85
2022-12-26T13:07:56.932Z,35.66
2022-12-26T13:10:24.793Z,35.75
2022-12-26T13:12:52.580Z,35.69
2022-12-26T13:15:20.428Z,35.76
2022-12-26T13:17:48.163Z,35.51
2022-12-26T13:20:15.946Z,35.21
2022-12-26T13:23:01.022Z,35.30
2022-12-26T13:25:28.787Z,35.30
2022-12-26T13:27:56.503Z,35.26
2022-12-26T13:30:24.215Z,35.35
2022-12-26T13:32:51.985Z,35.51
2022-12-26T13:35:19.781Z,35.30
2022-12-26T13:37:47.521Z,35.42
2022-12-26T13:40:15.225Z,35.18
2022-12-26T13:43:00.885Z,35.19
2022-12-26T13:45:28.690Z,35.21
2022-12-26T13:47:56.532Z,35.21
2022-12-26T13:50:24.318Z,35.45
2022-12-26T13:52:52.004Z,35.05
2022-12-26T13:55:19.771Z,35.04
2022-12-26T13:57:47.506Z,35.25
2022-12-26T14:00:15.237Z,35.13
2022-12-26T14:03:16.227Z,35.31
2022-12-26T14:05:30.711Z,35.09
2022-12-26T14:07:58.916Z,35.11
2022-12-26T14:10:26.608Z,35.36
2022-12-26T14:12:54.304Z,35.43
2022-12-26T14:15:22.058Z,35.23
2022-12-26T14:17:49.762Z,35.23
2022-12-26T14:20:17.545Z,35.36
2022-12-26T14:22:47.443Z,35.36
2022-12-26T14:25:15.240Z,35.23
2022-12-26T14:27:42.933Z,35.31
2022-12-26T14:30:10.851Z,35.32
2022-12-26T14:32:38.549Z,35.44
2022-12-26T14:35:06.272Z,35.38
2022-12-26T14:37:34.004Z,35.59
2022-12-26T14:40:01.720Z,35.84
2022-12-26T14:42:47.144Z,35.56
2022-12-26T14:45:14.874Z,35.71
2022-12-26T14:47:42.831Z,30.21
2022-12-26T14:50:10.676Z,22.10
2022-12-26T14:52:40.789Z,17.37
2022-12-26T14:55:08.620Z,14.61
2022-12-26T14:57:36.349Z,13.67
2022-12-26T15:00:04.217Z,12.88
2022-12-26T15:02:33.337Z,12.31
2022-12-26T15:05:01.176Z,11.78
2022-12-26T15:07:28.911Z,11.85
2022-12-26T15:09:56.728Z,11.56
2022-12-26T15:12:24.505Z,11.40
2022-12-26T15:14:52.321Z,11.62
2022-12-26T15:17:20.132Z,12.18
2022-12-26T15:19:47.866Z,12.36
2022-12-26T15:22:15.792Z,13.45
2022-12-26T15:25:17.734Z,14.21
2022-12-26T15:27:31.338Z,15.18
2022-12-26T15:29:59.154Z,15.54
2022-12-26T15:32:27.022Z,16.39
2022-12-26T15:34:54.863Z,17.29
2022-12-26T15:37:23.374Z,18.12
2022-12-26T15:39:51.151Z,18.84
2022-12-26T15:42:19.164Z,19.34
2022-12-26T15:44:46.994Z,19.91
2022-12-26T15:47:16.142Z,20.77
2022-12-26T15:49:43.946Z,21.34
2022-12-26T15:52:11.849Z,22.17
2022-12-26T15:54:39.666Z,22.56
2022-12-26T15:59:54.606Z,24.00
2022-12-26T16:02:23.555Z,24.42
2022-12-26T16:04:51.716Z,25.06
2022-12-26T16:07:19.507Z,25.38
2022-12-26T16:09:47.322Z,26.02
2022-12-26T16:12:15.088Z,26.39
2022-12-26T16:14:42.814Z,26.66
2022-12-26T16:17:10.595Z,27.10
2022-12-26T16:19:38.324Z,27.28
2022-12-26T16:22:25.885Z,27.65
2022-12-26T16:24:53.813Z,27.95
2022-12-26T16:27:21.591Z,28.31
2022-12-26T16:29:49.489Z,28.58
2022-12-26T16:32:17.413Z,29.34
2022-12-26T16:34:45.288Z,29.27
2022-12-26T16:37:13.048Z,29.03
2022-12-26T16:39:40.838Z,27.79
2022-12-26T16:42:08.730Z,26.73
2022-12-26T16:44:36.661Z,25.55
2022-12-26T16:47:04.545Z,23.96
2022-12-26T16:49:33.003Z,21.69
2022-12-26T16:52:00.820Z,18.98
2022-12-26T16:54:28.681Z,17.32
2022-12-26T16:56:56.581Z,17.00
2022-12-26T16:59:24.399Z,16.31
2022-12-26T17:01:52.319Z,16.26
2022-12-26T17:04:20.227Z,16.60
2022-12-26T17:06:48.985Z,17.29
2022-12-26T17:09:17.388Z,17.65
2022-12-26T17:11:45.178Z,18.54
2022-12-26T17:14:13.068Z,19.24
2022-12-26T17:16:43.006Z,19.24
2022-12-26T17:19:10.728Z,20.24
2022-12-26T17:21:38.632Z,20.52
2022-12-26T17:24:06.490Z,21.61
2022-12-26T17:26:34.322Z,21.92
2022-12-26T17:29:02.272Z,22.54
2022-12-26T17:31:30.179Z,23.27
2022-12-26T17:33:58.102Z,24.11
2022-12-26T17:39:14.235Z,25.08
2022-12-26T17:41:42.089Z,25.61
2022-12-26T17:44:09.856Z,26.32
2022-12-26T17:46:37.854Z,26.70
2022-12-26T17:49:05.754Z,27.16
2022-12-26T17:51:34.560Z,27.21
2022-12-26T17:54:02.419Z,27.76
2022-12-26T17:56:30.317Z,27.93
2022-12-26T17:58:58.208Z,28.28
2022-12-26T18:01:26.108Z,28.22
2022-12-26T18:03:54.117Z,29.09
2022-12-26T18:06:23.717Z,28.86
2022-12-26T18:08:51.677Z,29.34
2022-12-26T18:11:19.577Z,29.53
2022-12-26T18:13:47.435Z,28.64
2022-12-26T18:16:15.271Z,26.41
2022-12-26T18:18:43.098Z,22.61
2022-12-26T18:21:10.899Z,19.83
2022-12-26T18:23:38.788Z,17.08
2022-12-26T18:26:06.510Z,15.96
2022-12-26T18:28:34.249Z,15.26
2022-12-26T18:31:02.007Z,14.30
2022-12-26T18:33:29.778Z,14.88
2022-12-26T18:35:58.989Z,14.49
2022-12-26T18:38:29.682Z,14.95
2022-12-26T18:40:58.062Z,15.45
2022-12-26T18:43:25.843Z,16.58
2022-12-26T18:45:53.824Z,17.42
2022-12-26T18:48:21.658Z,17.83
2022-12-26T18:50:49.399Z,19.03
2022-12-26T18:53:17.554Z,19.70
2022-12-26T18:55:45.482Z,19.63
2022-12-26T18:58:13.263Z,20.82
2022-12-26T19:00:41.077Z,21.61
2022-12-26T19:03:09.076Z,22.00
2022-12-26T19:05:36.840Z,22.94
2022-12-26T19:08:04.864Z,23.29
2022-12-26T19:10:32.879Z,23.93
2022-12-26T19:13:05.560Z,24.57
2022-12-26T19:15:35.070Z,24.87
2022-12-26T19:18:02.908Z,25.61
2022-12-26T19:20:30.710Z,26.11
2022-12-26T19:22:58.491Z,26.55
2022-12-26T19:25:26.503Z,26.70
2022-12-26T19:27:54.281Z,27.01
2022-12-26T19:30:22.166Z,27.58
2022-12-26T19:32:49.983Z,27.78
2022-12-26T19:35:17.785Z,28.62
2022-12-26T19:37:45.557Z,28.37
2022-12-26T19:40:13.354Z,28.98
2022-12-26T19:42:41.130Z,28.83
2022-12-26T19:45:08.932Z,29.02
2022-12-26T19:47:36.719Z,29.78
2022-12-26T19:50:04.552Z,29.64
2022-12-26T19:52:32.658Z,29.50
2022-12-26T19:55:00.422Z,29.32
2022-12-26T19:57:28.224Z,29.19
2022-12-26T19:59:55.995Z,29.35
2022-12-26T20:02:23.836Z,29.26
2022-12-26T20:04:51.820Z,29.29
2022-12-26T20:07:19.662Z,29.79
2022-12-26T20:09:47.410Z,29.80
2022-12-26T20:12:15.168Z,29.80
2022-12-26T20:14:42.930Z,30.09
2022-12-26T20:17:12.311Z,30.55
2022-12-26T20:19:40.160Z,30.50
2022-12-26T20:22:08.070Z,30.55
2022-12-26T20:24:35.848Z,31.05
2022-12-26T20:27:03.574Z,31.21
2022-12-26T20:29:31.409Z,31.09
2022-12-26T20:31:59.196Z,31.28
2022-12-26T20:34:27.400Z,31.47
2022-12-26T20:36:55.238Z,31.25
2022-12-26T20:39:23.405Z,31.91
2022-12-26T20:41:51.201Z,31.66
2022-12-26T20:44:18.957Z,31.80
2022-12-26T20:46:46.764Z,32.44
2022-12-26T20:49:14.508Z,32.19
2022-12-26T20:51:42.265Z,32.25
2022-12-26T20:54:10.124Z,32.35
2022-12-26T20:56:37.982Z,32.60
2022-12-26T20:59:05.805Z,32.77
2022-12-26T21:01:33.646Z,32.62
2022-12-26T21:04:01.791Z,32.78
2022-12-26T21:06:29.828Z,32.88
2022-12-26T21:08:57.802Z,33.00
2022-12-26T21:11:25.662Z,33.14
2022-12-26T21:13:53.580Z,33.08
2022-12-26T21:16:21.474Z,32.75
2022-12-26T21:18:49.365Z,33.20
2022-12-26T21:21:17.236Z,33.05
2022-12-26T21:23:44.986Z,33.03
2022-12-26T21:26:12.731Z,32.98
2022-12-26T21:28:40.599Z,33.01
2022-12-26T21:31:08.417Z,32.91
2022-12-26T21:33:42.348Z,33.40
2022-12-26T21:36:12.128Z,33.58
2022-12-26T21:38:40.426Z,33.14
2022-12-26T21:41:08.303Z,33.15
2022-12-26T21:43:36.169Z,33.47
2022-12-26T21:46:03.979Z,33.28
2022-12-26T21:48:31.808Z,32.78
2022-12-26T21:50:59.601Z,33.07
2022-12-26T21:53:27.365Z,33.27
2022-12-26T21:55:54.334Z,33.37
2022-12-26T21:58:22.164Z,33.24
2022-12-26T22:00:49.962Z,33.51
2022-12-26T22:03:35.392Z,33.15
2022-12-26T22:06:03.182Z,33.22
2022-12-26T22:08:30.994Z,33.15
2022-12-26T22:11:16.041Z,33.24
2022-12-26T22:13:44.698Z,33.38
2022-12-26T22:16:12.589Z,33.23
2022-12-26T22:18:40.391Z,33.47
2022-12-26T22:21:08.197Z,33.25
2022-12-26T22:23:36.009Z,33.35
2022-12-26T22:26:03.867Z,33.08
2022-12-26T22:28:31.651Z,33.28
2022-12-26T22:30:59.505Z,33.43
2022-12-26T22:33:27.380Z,33.17
2022-12-26T22:35:55.326Z,33.07
2022-12-26T22:38:23.635Z,33.31
2022-12-26T22:40:51.368Z,33.05
2022-12-26T22:43:19.237Z,33.14
2022-12-26T22:45:47.059Z,33.36
2022-12-26T22:48:14.910Z,32.93
2022-12-26T22:50:42.702Z,33.09
2022-12-26T22:53:10.502Z,32.94
2022-12-26T22:55:38.278Z,33.11
2022-12-26T22:58:06.015Z,33.37
2022-12-26T23:00:33.767Z,33.23
2022-12-26T23:03:01.692Z,33.12
2022-12-26T23:05:29.532Z,33.42
2022-12-26T23:07:57.341Z,33.47
2022-12-26T23:10:25.219Z,33.58
2022-12-26T23:12:52.990Z,33.48
2022-12-26T23:15:20.689Z,33.56
2022-12-26T23:18:06.103Z,33.86
2022-12-26T23:20:51.308Z,33.34
2022-12-26T23:23:19.138Z,33.88
2022-12-26T23:25:46.963Z,33.74
2022-12-26T23:28:32.159Z,33.70
2022-12-26T23:31:03.307Z,33.67
2022-12-26T23:33:31.130Z,33.52
2022-12-26T23:35:59.001Z,33.47
2022-12-26T23:38:26.815Z,33.42
2022-12-26T23:40:54.602Z,33.41
2022-12-26T23:43:22.353Z,33.56
2022-12-26T23:45:50.132Z,33.42
2022-12-26T23:48:17.955Z,33.62
2022-12-26T23:50:45.737Z,33.32
2022-12-26T23:53:13.515Z,33.72
2022-12-26T23:55:41.320Z,33.37
2022-12-26T23:58:09.059Z,33.45
